Time;durP1;ratioP1;P1;durP2;ratioP2;P2;SDS_P1;SDS_P2;PMS_P1;PMS_P2;Temp;Humidity;BMP_temperature;BMP_pressure;BME280_temperature;BME280_humidity;BME280_pressure;Samples;Min_cycle;Max_cycle;Signal;HPM_P1;HPM_P2
2024/03/20 00:01:23;;;;;;;31.90;19.30;;;;;;;-0.51;100.00;100707.06;106244;1257;60562;-56
2024/03/20 00:03:51;;;;;;;29.00;18.40;;;;;;;-0.53;100.00;100707.40;106300;1257;60383;-55
2024/03/20 00:06:19;;;;;;;32.30;20.70;;;;;;;-0.54;100.00;100708.63;106196;1260;73908;-55
2024/03/20 00:08:46;;;;;;;32.00;19.70;;;;;;;-0.54;100.00;100705.09;106035;1258;67226;-55
2024/03/20 00:11:13;;;;;;;32.40;20.80;;;;;;;-0.56;100.00;100699.08;106121;1257;71772;-54
2024/03/20 00:13:40;;;;;;;37.90;20.70;;;;;;;-0.60;100.00;100695.50;105994;1259;64790;-54
2024/03/20 00:16:08;;;;;;;32.30;18.80;;;;;;;-0.64;100.00;100695.98;106001;1255;61298;-57
2024/03/20 00:18:36;;;;;;;38.70;19.20;;;;;;;-0.66;100.00;100690.84;105996;1260;74337;-56
2024/03/20 00:21:03;;;;;;;27.90;17.20;;;;;;;-0.65;100.00;100691.02;106003;1260;65810;-56
2024/03/20 00:23:30;;;;;;;32.30;18.90;;;;;;;-0.65;100.00;100688.20;106032;1264;71462;-57
2024/03/20 00:26:00;;;;;;;35.50;21.10;;;;;;;-0.65;100.00;100681.52;106033;1270;61196;-54
2024/03/20 00:28:27;;;;;;;31.90;20.80;;;;;;;-0.64;100.00;100675.89;106139;1254;60441;-55
2024/03/20 00:30:54;;;;;;;34.40;20.40;;;;;;;-0.61;100.00;100673.98;106044;1262;72696;-56
2024/03/20 00:33:21;;;;;;;42.80;23.60;;;;;;;-0.60;100.00;100670.83;106080;1260;65973;-55
2024/03/20 00:35:48;;;;;;;37.40;22.90;;;;;;;-0.60;100.00;100662.71;106107;1264;70551;-56
2024/03/20 00:38:15;;;;;;;41.40;24.50;;;;;;;-0.61;100.00;100657.23;106421;1257;60502;-57
2024/03/20 00:40:42;;;;;;;39.80;24.50;;;;;;;-0.62;100.00;100658.29;106042;1254;60514;-56
2024/03/20 00:43:10;;;;;;;46.20;27.10;;;;;;;-0.64;100.00;100653.84;106196;1257;74824;-55
2024/03/20 00:45:37;;;;;;;44.80;27.50;;;;;;;-0.66;100.00;100654.16;106115;1254;65462;-55
2024/03/20 00:48:05;;;;;;;44.30;26.60;;;;;;;-0.68;100.00;100649.05;106064;1258;70450;-56
2024/03/20 00:50:33;;;;;;;47.40;27.20;;;;;;;-0.69;100.00;100653.28;106224;1257;60454;-56
2024/03/20 00:53:00;;;;;;;47.90;28.70;;;;;;;-0.70;100.00;100657.48;106167;1258;60420;-55
2024/03/20 00:55:27;;;;;;;54.60;32.70;;;;;;;-0.71;100.00;100659.60;106076;1263;73101;-56
2024/03/20 00:57:54;;;;;;;51.50;32.00;;;;;;;-0.72;100.00;100655.52;106131;1260;65107;-58
2024/03/20 01:00:21;;;;;;;54.30;28.50;;;;;;;-0.73;100.00;100653.58;106136;1257;72803;-56
2024/03/20 01:02:48;;;;;;;50.30;28.20;;;;;;;-0.74;100.00;100653.73;106023;1254;61398;-56
2024/03/20 01:05:16;;;;;;;52.50;29.90;;;;;;;-0.76;100.00;100654.05;106153;1258;63382;-57
2024/03/20 01:07:43;;;;;;;53.50;29.90;;;;;;;-0.76;100.00;100657.22;106136;1267;74026;-57
2024/03/20 01:10:10;;;;;;;54.70;31.50;;;;;;;-0.76;100.00;100659.33;106104;1259;65877;-57
2024/03/20 01:12:37;;;;;;;49.90;28.90;;;;;;;-0.76;100.00;100661.45;105979;1254;72761;-59
2024/03/20 01:15:05;;;;;;;43.30;27.40;;;;;;;-0.77;100.00;100663.58;106141;1257;61831;-59
2024/03/20 01:17:33;;;;;;;49.40;27.00;;;;;;;-0.78;100.00;100662.69;106313;1254;61471;-57
2024/03/20 01:20:05;;;;;;;50.10;28.00;;;;;;;-0.80;100.00;100657.72;106080;1261;74374;-57
2024/03/20 01:22:36;;;;;;;43.60;28.70;;;;;;;-0.84;100.00;100657.50;106293;1259;66927;-57
2024/03/20 01:25:07;;;;;;;50.30;32.10;;;;;;;-0.88;100.00;100658.52;106991;1254;72646;-57
2024/03/20 01:27:34;;;;;;;53.70;33.10;;;;;;;-0.92;100.00;100651.59;106645;1254;61419;-57
2024/03/20 01:30:02;;;;;;;54.20;31.20;;;;;;;-0.97;100.00;100655.40;106198;1254;60600;-58
2024/03/20 01:32:29;;;;;;;52.40;30.90;;;;;;;-1.03;100.00;100657.96;106184;1260;72719;-57
2024/03/20 01:34:56;;;;;;;48.20;29.60;;;;;;;-1.07;100.00;100652.27;106118;1253;67476;-57
2024/03/20 01:37:23;;;;;;;48.90;26.90;;;;;;;-1.11;100.00;100648.53;106124;1260;73210;-57
2024/03/20 01:39:50;;;;;;;44.40;26.80;;;;;;;-1.13;100.00;100641.64;106081;1254;60950;-62
2024/03/20 01:42:18;;;;;;;38.70;22.00;;;;;;;-1.15;100.00;100642.67;106214;1270;60016;-56
2024/03/20 01:44:45;;;;;;;40.20;22.00;;;;;;;-1.13;100.00;100643.05;106247;1270;72401;-57
2024/03/20 01:47:12;;;;;;;37.80;22.80;;;;;;;-1.12;100.00;100639.90;106078;1266;66919;-57
2024/03/20 01:49:39;;;;;;;43.40;25.10;;;;;;;-1.10;100.00;100641.49;106080;1254;71438;-56
2024/03/20 01:52:06;;;;;;;42.90;23.30;;;;;;;-1.08;100.00;100638.86;106080;1260;60440;-56
2024/03/20 01:54:33;;;;;;;33.70;21.60;;;;;;;-1.06;100.00;100641.20;106001;1260;60392;-56
2024/03/20 01:57:00;;;;;;;37.90;22.80;;;;;;;-1.01;100.00;100637.38;106092;1254;72520;-56
2024/03/20 01:59:28;;;;;;;32.30;20.70;;;;;;;-0.96;100.00;100635.33;108933;1252;66935;-57
2024/03/20 02:01:55;;;;;;;37.80;22.70;;;;;;;-0.95;100.00;100630.77;109121;1254;72798;-57
2024/03/20 02:04:22;;;;;;;42.20;25.30;;;;;;;-0.94;100.00;100630.77;109090;1256;59412;-57
2024/03/20 02:06:49;;;;;;;40.50;24.50;;;;;;;-0.93;100.00;100627.42;109199;1253;58914;-57
2024/03/20 02:09:16;;;;;;;41.70;26.20;;;;;;;-0.93;100.00;100631.14;109132;1253;73839;-56
2024/03/20 02:11:43;;;;;;;42.10;25.10;;;;;;;-0.93;100.00;100629.54;109014;1254;67328;-56
2024/03/20 02:14:10;;;;;;;43.90;25.00;;;;;;;-0.93;100.00;100626.90;109172;1256;71405;-57
2024/03/20 02:16:37;;;;;;;38.10;23.70;;;;;;;-0.94;100.00;100620.73;109079;1254;59519;-57
2024/03/20 02:19:05;;;;;;;35.70;23.50;;;;;;;-0.95;100.00;100626.19;109246;1253;60291;-57
2024/03/20 02:21:32;;;;;;;36.70;21.10;;;;;;;-0.97;100.00;100617.89;108372;1254;74371;-57
2024/03/20 02:24:05;;;;;;;34.20;21.20;;;;;;;-1.00;100.00;100615.19;106091;1254;66725;-58
2024/03/20 02:26:32;;;;;;;42.00;25.50;;;;;;;-1.02;100.00;100611.82;106061;1257;72696;-56
2024/03/20 02:28:59;;;;;;;46.50;26.10;;;;;;;-1.05;100.00;100613.73;106078;1258;60524;-58
2024/03/20 02:31:26;;;;;;;35.00;20.00;;;;;;;-1.08;100.00;100616.67;106121;1254;60595;-55
2024/03/20 02:33:55;;;;;;;38.60;21.20;;;;;;;-1.07;100.00;100618.45;106090;1257;74070;-55
2024/03/20 02:36:22;;;;;;;38.80;22.40;;;;;;;-1.03;100.00;100618.33;107437;1258;64969;-55
2024/03/20 02:38:49;;;;;;;37.70;21.20;;;;;;;-1.01;100.00;100621.86;106083;1254;71455;-55
2024/03/20 02:41:17;;;;;;;32.50;16.70;;;;;;;-0.99;100.00;100626.31;106118;1258;60692;-55
2024/03/20 02:43:45;;;;;;;25.90;15.00;;;;;;;-0.96;100.00;100630.74;106054;1254;60405;-56
2024/03/20 02:46:12;;;;;;;24.00;13.80;;;;;;;-0.94;100.00;100628.84;106126;1254;73864;-55
2024/03/20 02:48:39;;;;;;;24.50;13.80;;;;;;;-0.89;100.00;100628.89;106246;1257;66958;-58
2024/03/20 02:51:06;;;;;;;22.80;14.60;;;;;;;-0.86;100.00;100630.70;106119;1254;73048;-55
2024/03/20 02:53:33;;;;;;;23.50;14.20;;;;;;;-0.82;100.00;100637.43;106246;1254;61428;-55
2024/03/20 02:56:01;;;;;;;19.90;13.00;;;;;;;-0.81;100.00;100632.52;106074;1260;60600;-55
2024/03/20 02:58:28;;;;;;;25.80;14.10;;;;;;;-0.80;100.00;100636.05;106071;1254;73823;-57
2024/03/20 03:00:55;;;;;;;23.80;15.50;;;;;;;-0.81;100.00;100638.67;106090;1254;65522;-58
2024/03/20 03:03:22;;;;;;;22.60;15.00;;;;;;;-0.83;100.00;100644.80;106162;1254;72815;-55
2024/03/20 03:05:49;;;;;;;32.60;17.70;;;;;;;-0.86;100.00;100647.63;107036;1257;59340;-54
2024/03/20 03:08:16;;;;;;;40.50;21.70;;;;;;;-0.90;100.00;100643.86;106160;1257;60540;-53
2024/03/20 03:10:44;;;;;;;26.80;16.70;;;;;;;-0.94;100.00;100638.70;106135;1254;73970;-55
2024/03/20 03:13:11;;;;;;;29.20;17.10;;;;;;;-0.99;100.00;100635.64;106129;1254;67441;-55
2024/03/20 03:15:39;;;;;;;36.00;19.60;;;;;;;-1.03;100.00;100635.59;106091;1257;72775;-56
2024/03/20 03:18:06;;;;;;;27.20;18.70;;;;;;;-1.06;100.00;100639.95;106003;1261;61230;-56
2024/03/20 03:20:33;;;;;;;27.80;17.90;;;;;;;-1.08;100.00;100639.39;105929;1253;61410;-54
2024/03/20 03:23:00;;;;;;;31.40;17.80;;;;;;;-1.09;100.00;100639.02;105891;1254;74538;-56
2024/03/20 03:25:28;;;;;;;29.30;17.20;;;;;;;-1.09;100.00;100643.97;106036;1257;66004;-56
2024/03/20 03:27:55;;;;;;;29.50;18.40;;;;;;;-1.07;100.00;100645.40;106095;1257;71244;-59
2024/03/20 03:30:22;;;;;;;32.20;19.70;;;;;;;-1.06;100.00;100642.23;106026;1258;61257;-57
2024/03/20 03:32:49;;;;;;;32.70;19.30;;;;;;;-1.08;100.00;100644.67;106100;1253;62210;-57
2024/03/20 03:35:17;;;;;;;24.50;14.50;;;;;;;-1.10;100.00;100648.89;106075;1257;74760;-56
2024/03/20 03:37:44;;;;;;;30.40;17.70;;;;;;;-1.11;100.00;100649.05;106389;1257;65680;-57
2024/03/20 03:40:11;;;;;;;32.90;18.90;;;;;;;-1.11;100.00;100651.88;106086;1259;72885;-56
2024/03/20 03:42:39;;;;;;;32.10;21.40;;;;;;;-1.13;100.00;100651.50;106046;1259;61381;-56
2024/03/20 03:45:06;;;;;;;39.60;22.70;;;;;;;-1.14;100.00;100652.53;106186;1257;61320;-59
2024/03/20 03:47:34;;;;;;;32.20;20.40;;;;;;;-1.18;100.00;100649.31;106353;1254;73522;-55
2024/03/20 03:50:01;;;;;;;25.10;16.50;;;;;;;-1.22;100.00;100643.63;106085;1256;66766;-56
2024/03/20 03:52:28;;;;;;;20.60;15.20;;;;;;;-1.28;100.00;100645.30;106042;1259;73197;-55
2024/03/20 03:54:55;;;;;;;23.90;14.70;;;;;;;-1.33;100.00;100645.77;106155;1263;61640;-58
2024/03/20 03:57:22;;;;;;;19.50;11.30;;;;;;;-1.37;100.00;100645.54;106126;1257;61402;-53
2024/03/20 03:59:49;;;;;;;15.90;10.00;;;;;;;-1.39;100.00;100646.39;106110;1257;74724;-56
2024/03/20 04:02:17;;;;;;;9.80;7.00;;;;;;;-1.38;100.00;100646.23;106113;1257;67265;-55
2024/03/20 04:04:44;;;;;;;18.20;10.40;;;;;;;-1.33;100.00;100647.70;106025;1257;72736;-55
2024/03/20 04:07:11;;;;;;;11.70;7.40;;;;;;;-1.28;100.00;100645.66;106103;1257;62270;-55
2024/03/20 04:09:39;;;;;;;16.50;7.50;;;;;;;-1.22;100.00;100652.44;106172;1254;61253;-59
2024/03/20 04:12:06;;;;;;;10.30;5.50;;;;;;;-1.17;100.00;100653.92;106231;1254;72519;-55
2024/03/20 04:14:33;;;;;;;8.80;5.20;;;;;;;-1.08;100.00;100651.20;106106;1257;65218;-55
2024/03/20 04:17:00;;;;;;;6.10;4.10;;;;;;;-1.00;100.00;100646.71;106111;1254;73186;-57
2024/03/20 04:19:27;;;;;;;6.90;4.30;;;;;;;-0.91;100.00;100654.78;106086;1257;62171;-55
2024/03/20 04:21:55;;;;;;;6.10;4.20;;;;;;;-0.82;100.00;100652.94;106070;1254;61419;-55
2024/03/20 04:24:22;;;;;;;8.20;5.10;;;;;;;-0.71;100.00;100648.84;106080;1257;75147;-54
2024/03/20 04:26:50;;;;;;;7.30;5.10;;;;;;;-0.63;100.00;100649.46;106131;1253;67018;-54
2024/03/20 04:29:17;;;;;;;7.10;3.90;;;;;;;-0.56;100.00;100650.60;106160;1260;72797;-55
2024/03/20 04:31:44;;;;;;;6.70;5.40;;;;;;;-0.47;100.00;100657.03;106045;1256;61301;-55
2024/03/20 04:34:12;;;;;;;9.50;5.10;;;;;;;-0.42;100.00;100657.45;106081;1257;61192;-56
2024/03/20 04:36:39;;;;;;;6.30;4.90;;;;;;;-0.35;100.00;100651.52;106052;1254;75358;-57
2024/03/20 04:39:07;;;;;;;11.80;5.40;;;;;;;-0.28;100.00;100654.23;106065;1256;66955;-56
2024/03/20 04:41:34;;;;;;;8.60;6.00;;;;;;;-0.21;100.00;100655.36;106323;1254;72018;-56
2024/03/20 04:44:01;;;;;;;9.50;5.80;;;;;;;-0.16;100.00;100656.81;106051;1254;61349;-55
2024/03/20 04:46:28;;;;;;;11.50;4.80;;;;;;;-0.11;100.00;100664.98;106071;1259;61206;-55
2024/03/20 04:48:55;;;;;;;11.10;5.10;;;;;;;-0.05;100.00;100665.73;106035;1257;73427;-56
2024/03/20 04:51:22;;;;;;;8.70;5.60;;;;;;;-0.01;100.00;100665.79;106137;1257;65067;-54
2024/03/20 04:53:51;;;;;;;13.40;5.30;;;;;;;-0.00;100.00;100673.37;106100;1257;71420;-56
2024/03/20 04:56:19;;;;;;;8.70;4.70;;;;;;;-0.00;100.00;100678.13;108365;1254;61415;-56
2024/03/20 04:58:46;;;;;;;6.50;4.50;;;;;;;0.01;100.00;100680.77;106155;1259;61681;-56
2024/03/20 05:01:13;;;;;;;8.50;4.90;;;;;;;0.03;100.00;100687.86;106119;1257;74694;-56
2024/03/20 05:03:40;;;;;;;7.20;4.20;;;;;;;0.06;100.00;100686.48;106092;1254;65670;-57
2024/03/20 05:06:07;;;;;;;8.90;4.70;;;;;;;0.10;100.00;100684.40;106093;1257;72753;-56
2024/03/20 05:08:34;;;;;;;6.40;4.00;;;;;;;0.16;100.00;100685.88;106017;1254;61275;-55
2024/03/20 05:11:02;;;;;;;8.40;5.30;;;;;;;0.23;100.00;100685.04;106014;1260;61452;-57
2024/03/20 05:13:29;;;;;;;7.20;4.50;;;;;;;0.30;100.00;100689.33;109046;1254;74331;-56
2024/03/20 05:15:57;;;;;;;7.30;3.60;;;;;;;0.37;100.00;100686.91;109123;1254;65651;-56
2024/03/20 05:18:24;;;;;;;6.80;4.80;;;;;;;0.44;100.00;100689.43;109114;1255;71235;-56
2024/03/20 05:20:52;;;;;;;11.60;5.80;;;;;;;0.50;100.00;100691.61;109013;1253;61784;-56
2024/03/20 05:23:19;;;;;;;6.80;4.60;;;;;;;0.55;100.00;100695.70;109093;1253;58990;-55
2024/03/20 05:25:54;;;;;;;6.20;4.20;;;;;;;0.61;100.00;100695.38;109007;1254;74745;-57
2024/03/20 05:28:21;;;;;;;6.50;4.20;;;;;;;0.67;100.00;100698.08;107992;1253;66879;-56
2024/03/20 05:30:49;;;;;;;5.90;4.20;;;;;;;0.74;100.00;100699.91;108994;1254;73277;-57
2024/03/20 05:33:18;;;;;;;5.10;4.40;;;;;;;0.83;100.00;100699.42;106963;1256;61129;-56
2024/03/20 05:35:45;;;;;;;8.30;5.30;;;;;;;0.93;100.00;100706.55;106177;1256;61340;-55
2024/03/20 05:38:17;;;;;;;9.60;6.00;;;;;;;0.99;100.00;100707.83;106079;1259;72736;-55
2024/03/20 05:40:44;;;;;;;9.10;5.30;;;;;;;1.02;100.00;100711.02;106034;1259;67775;-55
2024/03/20 05:43:11;;;;;;;9.30;6.70;;;;;;;1.07;100.00;100706.99;106131;1259;70405;-54
2024/03/20 05:45:39;;;;;;;8.70;5.80;;;;;;;1.12;100.00;100707.17;106284;1254;61838;-54
2024/03/20 05:48:06;;;;;;;14.00;7.40;;;;;;;1.14;100.00;100707.36;106229;1253;60140;-54
2024/03/20 05:50:35;;;;;;;8.40;5.40;;;;;;;1.16;100.00;100706.33;106278;1262;73360;-53
2024/03/20 05:53:02;;;;;;;10.80;5.00;;;;;;;1.18;100.00;100709.68;106101;1257;66970;-54
2024/03/20 05:55:29;;;;;;;12.00;5.70;;;;;;;1.21;100.00;100711.63;106127;1259;72748;-54
2024/03/20 05:57:56;;;;;;;13.00;5.80;;;;;;;1.22;100.00;100714.65;106231;1259;61086;-54
2024/03/20 06:00:27;;;;;;;11.60;5.50;;;;;;;1.23;100.00;100721.73;106299;1256;61734;-54
2024/03/20 06:02:54;;;;;;;10.90;5.60;;;;;;;1.27;100.00;100724.94;106193;1259;75174;-54
2024/03/20 06:05:21;;;;;;;9.00;5.00;;;;;;;1.32;100.00;100715.94;106073;1258;67140;-54
2024/03/20 06:07:50;;;;;;;11.00;5.90;;;;;;;1.39;100.00;100710.13;106533;1254;72860;-54
2024/03/20 06:10:18;;;;;;;10.60;6.50;;;;;;;1.46;100.00;100707.15;106071;1258;61238;-54
2024/03/20 06:12:45;;;;;;;8.60;5.70;;;;;;;1.51;100.00;100703.11;106282;1256;60105;-54
2024/03/20 06:15:12;;;;;;;10.40;7.80;;;;;;;1.56;100.00;100703.29;106063;1254;73762;-53
2024/03/20 06:17:39;;;;;;;12.10;7.70;;;;;;;1.58;100.00;100705.60;106073;1256;64921;-53
2024/03/20 06:20:08;;;;;;;13.20;7.90;;;;;;;1.59;100.00;100708.63;106146;1258;72429;-53
2024/03/20 06:22:36;;;;;;;13.90;7.30;;;;;;;1.60;100.00;100707.58;106115;1253;61877;-55
2024/03/20 06:25:07;;;;;;;16.80;8.40;;;;;;;1.61;100.00;100705.98;106311;1254;61672;-54
2024/03/20 06:27:34;;;;;;;10.70;5.90;;;;;;;1.64;100.00;100703.48;106012;1258;75849;-55
2024/03/20 06:30:04;;;;;;;11.30;7.10;;;;;;;1.66;100.00;100704.21;106252;1256;65702;-54
2024/03/20 06:32:32;;;;;;;14.60;7.40;;;;;;;1.69;100.00;100701.92;106031;1254;72745;-54
2024/03/20 06:34:59;;;;;;;10.30;6.40;;;;;;;1.75;100.00;100703.89;105892;1259;61423;-55
2024/03/20 06:37:27;;;;;;;12.30;6.50;;;;;;;1.82;100.00;100705.66;105944;1258;61187;-55
2024/03/20 06:39:54;;;;;;;8.80;6.40;;;;;;;1.90;100.00;100712.59;106036;1254;74703;-56
2024/03/20 06:42:21;;;;;;;10.50;7.10;;;;;;;1.99;100.00;100706.94;106095;1257;65809;-56
2024/03/20 06:44:49;;;;;;;10.10;6.70;;;;;;;2.05;100.00;100707.83;106040;1260;71372;-56
2024/03/20 06:47:17;;;;;;;9.50;6.80;;;;;;;2.08;100.00;100710.84;106087;1260;61366;-57
2024/03/20 06:49:44;;;;;;;17.30;8.40;;;;;;;2.08;100.00;100716.16;106118;1254;61993;-56
2024/03/20 06:52:16;;;;;;;9.90;6.10;;;;;;;2.08;100.00;100719.35;106100;1259;74665;-56
2024/03/20 06:54:46;;;;;;;10.50;6.40;;;;;;;2.08;100.00;100720.41;106348;1253;67509;-57
2024/03/20 06:57:13;;;;;;;13.10;5.30;;;;;;;2.08;100.00;100725.71;106453;1259;72734;-56
2024/03/20 06:59:41;;;;;;;10.50;6.20;;;;;;;2.05;100.00;100723.77;106108;1253;61390;-56
2024/03/20 07:02:08;;;;;;;7.50;4.60;;;;;;;2.03;100.00;100729.27;106057;1258;62242;-56
2024/03/20 07:04:36;;;;;;;7.50;5.10;;;;;;;2.04;100.00;100733.68;106101;1254;73421;-56
2024/03/20 07:07:03;;;;;;;9.30;5.90;;;;;;;2.09;100.00;100733.34;106077;1253;66912;-57
2024/03/20 07:09:31;;;;;;;9.70;5.20;;;;;;;2.16;100.00;100733.16;106071;1258;71062;-56
2024/03/20 07:11:59;;;;;;;11.80;5.80;;;;;;;2.20;100.00;100739.55;106018;1259;61349;-57
2024/03/20 07:14:27;;;;;;;6.60;4.20;;;;;;;2.24;100.00;100736.70;106018;1258;61266;-57
2024/03/20 07:16:54;;;;;;;4.90;3.60;;;;;;;2.31;100.00;100741.33;106061;1254;74776;-57
2024/03/20 07:19:21;;;;;;;6.80;4.50;;;;;;;2.39;100.00;100740.98;106130;1254;67142;-57
2024/03/20 07:21:48;;;;;;;5.80;4.30;;;;;;;2.46;100.00;100741.16;106049;1253;71435;-57
2024/03/20 07:24:16;;;;;;;7.50;4.90;;;;;;;2.54;100.00;100741.34;106039;1254;61356;-57
2024/03/20 07:26:43;;;;;;;9.20;5.10;;;;;;;2.58;100.00;100740.62;106131;1269;61441;-57
2024/03/20 07:29:10;;;;;;;7.80;4.80;;;;;;;2.59;100.00;100741.16;106110;1254;75616;-57
2024/03/20 07:31:38;;;;;;;10.20;6.10;;;;;;;2.62;100.00;100742.76;106079;1254;67651;-58
2024/03/20 07:34:06;;;;;;;9.60;5.00;;;;;;;2.63;100.00;100744.89;106185;1254;71624;-58
2024/03/20 07:36:36;;;;;;;8.80;5.90;;;;;;;2.63;100.00;100745.95;106005;1258;62101;-58
2024/03/20 07:39:04;;;;;;;10.30;6.10;;;;;;;2.64;100.00;100746.81;106230;1260;61295;-58
2024/03/20 07:41:32;;;;;;;11.50;6.50;;;;;;;2.68;100.00;100742.21;106105;1257;74765;-57
2024/03/20 07:43:59;;;;;;;8.30;6.20;;;;;;;2.70;100.00;100741.52;106164;1257;66985;-57
2024/03/20 07:46:26;;;;;;;6.10;4.80;;;;;;;2.70;100.00;100737.98;106099;1258;71458;-58
2024/03/20 07:48:53;;;;;;;7.10;5.40;;;;;;;2.70;100.00;100741.70;106010;1276;61368;-58
2024/03/20 07:51:21;;;;;;;9.80;7.20;;;;;;;2.73;100.00;100738.84;106090;1254;62300;-58
2024/03/20 07:53:48;;;;;;;12.50;7.30;;;;;;;2.75;100.00;100742.57;106084;1259;74480;-58
2024/03/20 07:56:15;;;;;;;7.80;5.90;;;;;;;2.77;100.00;100744.88;106058;1253;65818;-58
2024/03/20 07:58:42;;;;;;;7.40;6.30;;;;;;;2.75;100.00;100742.21;106015;1267;72801;-57
2024/03/20 08:01:13;;;;;;;12.40;7.70;;;;;;;2.73;100.00;100746.29;106109;1257;61509;-58
2024/03/20 08:03:41;;;;;;;9.60;7.60;;;;;;;2.71;100.00;100744.89;106065;1252;61175;-58
2024/03/20 08:06:09;;;;;;;11.50;7.80;;;;;;;2.68;100.00;100744.35;106050;1254;73643;-57
2024/03/20 08:08:37;;;;;;;10.10;7.10;;;;;;;2.68;100.00;100742.75;106102;1258;65667;-58
2024/03/20 08:11:05;;;;;;;10.80;5.90;;;;;;;2.68;100.00;100740.98;108979;1253;71466;-58
2024/03/20 08:13:33;;;;;;;10.80;6.60;;;;;;;2.69;100.00;100748.42;109164;1254;63014;-57
2024/03/20 08:16:00;;;;;;;10.60;7.10;;;;;;;2.73;100.00;100742.57;108984;1253;60105;-58
2024/03/20 08:18:30;;;;;;;9.70;6.00;;;;;;;2.75;100.00;100739.55;109124;1255;74630;-58
2024/03/20 08:20:58;;;;;;;8.00;5.00;;;;;;;2.77;100.00;100732.64;109240;1252;66965;-57
2024/03/20 08:23:25;;;;;;;5.80;4.80;;;;;;;2.81;100.00;100725.91;109011;1254;71432;-59
2024/03/20 08:25:55;;;;;;;7.60;5.60;;;;;;;2.85;100.00;100727.31;109239;1253;59201;-58
2024/03/20 08:28:22;;;;;;;7.20;5.40;;;;;;;2.93;100.00;100730.67;109079;1253;59176;-58
2024/03/20 08:30:50;;;;;;;10.90;7.00;;;;;;;3.02;100.00;100734.20;109146;1253;75129;-58
2024/03/20 08:33:17;;;;;;;8.70;5.50;;;;;;;3.10;100.00;100736.13;109152;1253;67524;-58
2024/03/20 08:35:44;;;;;;;11.00;7.20;;;;;;;3.14;100.00;100735.41;109117;1254;71099;-57
2024/03/20 08:38:11;;;;;;;9.90;5.90;;;;;;;3.16;100.00;100735.92;109037;1253;59615;-58
2024/03/20 08:40:38;;;;;;;7.80;6.00;;;;;;;3.19;100.00;100735.39;109177;1254;59211;-58
2024/03/20 08:43:05;;;;;;;7.70;6.40;;;;;;;3.21;100.00;100734.69;107379;1253;76956;-57
2024/03/20 08:45:45;;;;;;;8.40;6.20;;;;;;;3.24;100.00;100738.21;106061;1259;65771;-57
2024/03/20 08:48:13;;;;;;;7.60;6.20;;;;;;;3.27;100.00;100742.64;106027;1253;73367;-57
2024/03/20 08:50:41;;;;;;;3.80;3.40;;;;;;;3.32;100.00;100739.61;106449;1257;61381;-57
2024/03/20 08:53:08;;;;;;;3.20;2.80;;;;;;;3.34;100.00;100742.61;106391;1257;61336;-57
2024/03/20 08:55:35;;;;;;;6.40;4.00;;;;;;;3.38;100.00;100746.52;106052;1254;73848;-57
2024/03/20 08:58:04;;;;;;;5.70;4.00;;;;;;;3.42;100.00;100750.04;106030;1257;64996;-57
2024/03/20 09:00:32;;;;;;;5.70;3.10;;;;;;;3.46;100.00;100748.62;106781;1256;72914;-57
2024/03/20 09:03:00;;;;;;;2.50;2.00;;;;;;;3.51;100.00;100751.95;106790;1254;61303;-57
2024/03/20 09:05:28;;;;;;;9.20;3.30;;;;;;;3.58;100.00;100748.21;106950;1254;60072;-57
2024/03/20 09:07:55;;;;;;;5.10;3.80;;;;;;;3.67;100.00;100749.05;106247;1253;73124;-58
2024/03/20 09:10:23;;;;;;;2.80;2.40;;;;;;;3.74;100.00;100750.27;108560;1253;66353;-57
2024/03/20 09:12:50;;;;;;;4.70;2.40;;;;;;;3.81;100.00;100753.98;105988;1258;71440;-57
2024/03/20 09:15:17;;;;;;;6.00;3.10;;;;;;;3.82;100.00;100752.20;106197;1260;61799;-58
2024/03/20 09:17:48;;;;;;;5.00;4.40;;;;;;;3.81;100.00;100752.20;106109;1254;62104;-58
2024/03/20 09:20:19;;;;;;;6.80;4.40;;;;;;;3.82;100.00;100748.46;106865;1258;74699;-58
2024/03/20 09:22:47;;;;;;;4.40;3.90;;;;;;;3.80;100.00;100744.02;107070;1254;66944;-58
2024/03/20 09:25:14;;;;;;;4.70;3.50;;;;;;;3.79;100.00;100742.08;106112;1254;72920;-58
2024/03/20 09:27:41;;;;;;;2.40;2.20;;;;;;;3.79;100.00;100742.08;106022;1254;62376;-59
2024/03/20 09:30:13;;;;;;;3.00;2.20;;;;;;;3.75;100.00;100739.24;106065;1256;61377;-58
2024/03/20 09:32:43;;;;;;;3.10;2.00;;;;;;;3.75;100.00;100740.13;106238;1254;73631;-57
2024/03/20 09:35:11;;;;;;;2.60;1.50;;;;;;;3.74;100.00;100743.33;106175;1259;68084;-58
2024/03/20 09:37:38;;;;;;;3.20;1.40;;;;;;;3.74;100.00;100736.41;106039;1254;73285;-58
2024/03/20 09:40:12;;;;;;;2.40;1.80;;;;;;;3.73;100.00;100736.79;105930;1253;61745;-58
2024/03/20 09:42:39;;;;;;;1.80;1.40;;;;;;;3.71;100.00;100742.30;106050;1254;61673;-58
2024/03/20 09:45:08;;;;;;;2.30;2.10;;;;;;;3.66;100.00;100744.45;106076;1257;74791;-58
2024/03/20 09:47:35;;;;;;;2.40;2.00;;;;;;;3.60;100.00;100748.73;106601;1259;64758;-59
2024/03/20 09:50:03;;;;;;;1.70;1.60;;;;;;;3.54;100.00;100747.88;106038;1254;72899;-58
2024/03/20 09:52:30;;;;;;;2.30;1.80;;;;;;;3.50;100.00;100750.20;106012;1254;62129;-57
2024/03/20 09:54:57;;;;;;;2.30;1.30;;;;;;;3.49;100.00;100745.23;106086;1253;62089;-57
2024/03/20 09:57:24;;;;;;;2.70;2.10;;;;;;;3.51;100.00;100747.70;106064;1260;73355;-57
2024/03/20 09:59:52;;;;;;;4.80;2.50;;;;;;;3.52;100.00;100752.48;105848;1254;66988;-57
2024/03/20 10:02:21;;;;;;;5.10;3.20;;;;;;;3.52;100.00;100752.31;106035;1259;72693;-57
2024/03/20 10:04:51;;;;;;;2.90;2.50;;;;;;;3.55;100.00;100751.78;106533;1254;61063;-57
2024/03/20 10:07:23;;;;;;;3.50;2.00;;;;;;;3.57;100.00;100750.53;106066;1260;61343;-58
2024/03/20 10:09:50;;;;;;;2.90;2.50;;;;;;;3.59;100.00;100747.67;106020;1259;75667;-58
2024/03/20 10:12:17;;;;;;;5.60;2.90;;;;;;;3.62;100.00;100743.40;106090;1256;65947;-57
2024/03/20 10:14:44;;;;;;;4.20;2.50;;;;;;;3.67;100.00;100738.41;106055;1256;72730;-58
2024/03/20 10:17:14;;;;;;;4.50;2.20;;;;;;;3.71;100.00;100735.38;105876;1260;61183;-58
2024/03/20 10:19:41;;;;;;;6.50;3.20;;;;;;;3.73;100.00;100732.17;106242;1259;61322;-58
2024/03/20 10:22:09;;;;;;;3.00;2.80;;;;;;;3.73;100.00;100736.44;106063;1259;75119;-57
2024/03/20 10:24:37;;;;;;;2.60;2.10;;;;;;;3.73;100.00;100736.80;106063;1258;65985;-58
2024/03/20 10:27:05;;;;;;;2.40;1.70;;;;;;;3.70;100.00;100738.58;106125;1256;73140;-59
2024/03/20 10:29:38;;;;;;;2.40;1.90;;;;;;;3.67;100.00;100739.81;106734;1259;61334;-58
2024/03/20 10:32:06;;;;;;;2.30;2.00;;;;;;;3.64;100.00;100739.32;107045;1258;61126;-57
2024/03/20 10:34:33;;;;;;;2.10;1.90;;;;;;;3.61;100.00;100735.05;106599;1259;72872;-57
2024/03/20 10:37:00;;;;;;;3.90;2.30;;;;;;;3.60;100.00;100735.05;106089;1254;66470;-59
2024/03/20 10:39:28;;;;;;;2.60;1.80;;;;;;;3.61;100.00;100730.80;106304;1259;70657;-57
2024/03/20 10:41:55;;;;;;;6.80;3.30;;;;;;;3.65;100.00;100726.16;105999;1254;61327;-58
2024/03/20 10:44:26;;;;;;;7.20;5.50;;;;;;;3.72;100.00;100723.11;106135;1254;61202;-57
2024/03/20 10:46:54;;;;;;;10.60;7.50;;;;;;;3.77;100.00;100726.27;106688;1256;74397;-57
2024/03/20 10:49:22;;;;;;;2.50;1.90;;;;;;;3.84;100.00;100725.19;106321;1259;66097;-57
2024/03/20 10:51:50;;;;;;;3.20;2.20;;;;;;;3.85;100.00;100722.52;106257;1255;72844;-58
2024/03/20 10:54:18;;;;;;;5.70;2.00;;;;;;;3.86;100.00;100716.83;106148;1254;61223;-57
2024/03/20 10:56:50;;;;;;;3.00;1.90;;;;;;;3.85;100.00;100711.67;109080;1253;59050;-57
2024/03/20 10:59:20;;;;;;;;;;;;;;;3.84;100.00;100716.11;109066;1254;75608;-58
2024/03/20 11:02:04;;;;;;;3.90;2.10;;;;;;;3.84;100.00;100709.90;109083;1252;65954;-57
2024/03/20 11:04:42;;;;;;;2.50;1.40;;;;;;;3.84;100.00;100705.11;109110;1254;72714;-57
2024/03/20 11:07:21;;;;;;;1.60;1.40;;;;;;;3.89;100.00;100702.97;109222;1253;59674;-56
2024/03/20 11:09:50;;;;;;;2.20;1.60;;;;;;;3.92;100.00;100703.47;109190;1259;60454;-56